West Acres, Pennsylvania
Current Conditions -  °F | °C
As of 9:53 PM on Thursday 27 Nov 2014 (Local Time) from KSEG Reporting Station
Overcast Overcast  
Wind Chill: 30°   Ceiling: 5500
Heat Index: 30°   Visibility: 8mi
Dew Point: 28°   Wind: 0mph
Humidity: 92%   Direction: NA
Pressure: 30.11"   Gusts: NA
Location:  40.9885°N, 76.9787°W
Report Text: KSEG 280253Z AUTO 00000KT 8SM OVC055 M01/M02 A3011 RMK AO2 SLP200 T10111022 51007
Loading
Personal Weather Stations






























Interactive Weather Map New forecast layout! Learn more

10-Day Weather Forecast

Advertisements
Track Severe Weather on mobile